sensor_id;sensor_type;location;lat;lon;timestamp;P1;durP1;ratioP1;P2;durP2;ratioP2
438;SDS011;206;48.782;9.252;2022-08-02T00:01:45;2.67;;;1.77;;
438;SDS011;206;48.782;9.252;2022-08-02T00:04:11;2.20;;;1.77;;
438;SDS011;206;48.782;9.252;2022-08-02T00:06:36;2.93;;;1.50;;
438;SDS011;206;48.782;9.252;2022-08-02T00:09:03;2.13;;;1.70;;
438;SDS011;206;48.782;9.252;2022-08-02T00:11:29;2.60;;;1.33;;
438;SDS011;206;48.782;9.252;2022-08-02T00:13:55;1.70;;;1.27;;
438;SDS011;206;48.782;9.252;2022-08-02T00:16:21;1.20;;;1.00;;
438;SDS011;206;48.782;9.252;2022-08-02T00:18:47;1.73;;;1.63;;
438;SDS011;206;48.782;9.252;2022-08-02T00:21:13;5.00;;;2.17;;
438;SDS011;206;48.782;9.252;2022-08-02T00:23:38;1.70;;;1.30;;
438;SDS011;206;48.782;9.252;2022-08-02T00:26:04;2.60;;;1.50;;
438;SDS011;206;48.782;9.252;2022-08-02T00:28:29;2.47;;;1.70;;
438;SDS011;206;48.782;9.252;2022-08-02T00:30:56;2.53;;;1.60;;
438;SDS011;206;48.782;9.252;2022-08-02T00:33:22;2.23;;;1.90;;
438;SDS011;206;48.782;9.252;2022-08-02T00:35:48;2.50;;;1.80;;
438;SDS011;206;48.782;9.252;2022-08-02T00:38:13;2.10;;;1.83;;
438;SDS011;206;48.782;9.252;2022-08-02T00:40:40;3.10;;;2.63;;
438;SDS011;206;48.782;9.252;2022-08-02T00:43:10;2.50;;;2.00;;
438;SDS011;206;48.782;9.252;2022-08-02T00:45:37;4.30;;;2.37;;
438;SDS011;206;48.782;9.252;2022-08-02T00:48:05;2.47;;;1.90;;
438;SDS011;206;48.782;9.252;2022-08-02T00:50:32;2.70;;;1.93;;
438;SDS011;206;48.782;9.252;2022-08-02T00:52:58;3.03;;;2.50;;
438;SDS011;206;48.782;9.252;2022-08-02T00:55:24;3.43;;;2.13;;
438;SDS011;206;48.782;9.252;2022-08-02T00:57:51;3.47;;;2.60;;
438;SDS011;206;48.782;9.252;2022-08-02T01:00:17;4.90;;;2.30;;
438;SDS011;206;48.782;9.252;2022-08-02T01:02:43;4.60;;;2.37;;
438;SDS011;206;48.782;9.252;2022-08-02T01:05:09;3.70;;;2.93;;
438;SDS011;206;48.782;9.252;2022-08-02T01:07:35;2.83;;;2.50;;
438;SDS011;206;48.782;9.252;2022-08-02T01:10:01;3.90;;;3.10;;
438;SDS011;206;48.782;9.252;2022-08-02T01:12:28;4.00;;;2.77;;
438;SDS011;206;48.782;9.252;2022-08-02T01:14:59;3.17;;;2.67;;
438;SDS011;206;48.782;9.252;2022-08-02T01:31:06;7.80;;;2.47;;
438;SDS011;206;48.782;9.252;2022-08-02T01:33:47;2.90;;;2.70;;
438;SDS011;206;48.782;9.252;2022-08-02T01:36:18;3.90;;;2.60;;
438;SDS011;206;48.782;9.252;2022-08-02T01:38:47;2.77;;;2.40;;
438;SDS011;206;48.782;9.252;2022-08-02T01:41:17;2.40;;;2.13;;
438;SDS011;206;48.782;9.252;2022-08-02T01:43:44;3.70;;;2.17;;
438;SDS011;206;48.782;9.252;2022-08-02T01:46:13;5.37;;;3.17;;
438;SDS011;206;48.782;9.252;2022-08-02T01:48:40;3.57;;;2.60;;
438;SDS011;206;48.782;9.252;2022-08-02T01:51:10;3.57;;;2.47;;
438;SDS011;206;48.782;9.252;2022-08-02T01:53:37;8.00;;;3.20;;
438;SDS011;206;48.782;9.252;2022-08-02T01:56:06;2.70;;;2.50;;
438;SDS011;206;48.782;9.252;2022-08-02T01:58:34;3.60;;;2.20;;
438;SDS011;206;48.782;9.252;2022-08-02T02:01:01;2.50;;;2.30;;
438;SDS011;206;48.782;9.252;2022-08-02T02:03:30;3.50;;;2.63;;
438;SDS011;206;48.782;9.252;2022-08-02T02:05:57;3.70;;;2.20;;
438;SDS011;206;48.782;9.252;2022-08-02T02:08:33;2.23;;;2.03;;
438;SDS011;206;48.782;9.252;2022-08-02T02:11:03;5.37;;;2.30;;
438;SDS011;206;48.782;9.252;2022-08-02T02:13:30;2.40;;;2.20;;
438;SDS011;206;48.782;9.252;2022-08-02T02:15:57;5.20;;;2.83;;
438;SDS011;206;48.782;9.252;2022-08-02T02:18:26;3.30;;;2.90;;
438;SDS011;206;48.782;9.252;2022-08-02T02:20:54;5.30;;;3.00;;
438;SDS011;206;48.782;9.252;2022-08-02T02:23:22;6.57;;;2.60;;
438;SDS011;206;48.782;9.252;2022-08-02T02:25:47;6.33;;;2.60;;
438;SDS011;206;48.782;9.252;2022-08-02T02:28:16;8.00;;;3.73;;
438;SDS011;206;48.782;9.252;2022-08-02T02:30:49;6.20;;;2.80;;
438;SDS011;206;48.782;9.252;2022-08-02T02:33:19;4.37;;;2.87;;
438;SDS011;206;48.782;9.252;2022-08-02T02:35:46;3.57;;;2.20;;
438;SDS011;206;48.782;9.252;2022-08-02T02:38:15;9.70;;;2.33;;
438;SDS011;206;48.782;9.252;2022-08-02T02:40:44;9.73;;;3.43;;
438;SDS011;206;48.782;9.252;2022-08-02T02:43:11;5.77;;;2.67;;
438;SDS011;206;48.782;9.252;2022-08-02T02:45:38;3.50;;;2.30;;
438;SDS011;206;48.782;9.252;2022-08-02T02:48:05;3.80;;;2.30;;
438;SDS011;206;48.782;9.252;2022-08-02T02:50:32;8.50;;;2.57;;
438;SDS011;206;48.782;9.252;2022-08-02T02:52:59;4.17;;;2.40;;
438;SDS011;206;48.782;9.252;2022-08-02T02:55:26;3.10;;;2.10;;
438;SDS011;206;48.782;9.252;2022-08-02T02:57:52;5.00;;;2.13;;
438;SDS011;206;48.782;9.252;2022-08-02T03:00:19;3.60;;;1.73;;
438;SDS011;206;48.782;9.252;2022-08-02T03:03:05;4.83;;;2.70;;
438;SDS011;206;48.782;9.252;2022-08-02T03:05:31;2.43;;;1.83;;
438;SDS011;206;48.782;9.252;2022-08-02T03:08:00;2.30;;;2.07;;
438;SDS011;206;48.782;9.252;2022-08-02T03:10:25;1.80;;;1.73;;
438;SDS011;206;48.782;9.252;2022-08-02T03:12:51;2.27;;;2.07;;
438;SDS011;206;48.782;9.252;2022-08-02T03:15:17;6.10;;;2.33;;
438;SDS011;206;48.782;9.252;2022-08-02T03:17:45;3.53;;;2.93;;
438;SDS011;206;48.782;9.252;2022-08-02T03:20:15;5.40;;;2.10;;
438;SDS011;206;48.782;9.252;2022-08-02T03:22:43;2.60;;;1.87;;
438;SDS011;206;48.782;9.252;2022-08-02T03:25:10;2.60;;;2.10;;
438;SDS011;206;48.782;9.252;2022-08-02T03:27:36;2.43;;;1.77;;
438;SDS011;206;48.782;9.252;2022-08-02T03:30:03;2.23;;;2.03;;
438;SDS011;206;48.782;9.252;2022-08-02T03:32:30;6.13;;;2.60;;
438;SDS011;206;48.782;9.252;2022-08-02T03:34:57;2.90;;;2.23;;
438;SDS011;206;48.782;9.252;2022-08-02T03:37:22;4.50;;;2.10;;
438;SDS011;206;48.782;9.252;2022-08-02T03:39:49;2.67;;;2.43;;
438;SDS011;206;48.782;9.252;2022-08-02T03:42:17;3.07;;;2.13;;
438;SDS011;206;48.782;9.252;2022-08-02T03:44:43;2.13;;;2.00;;
438;SDS011;206;48.782;9.252;2022-08-02T03:47:10;2.40;;;2.07;;
438;SDS011;206;48.782;9.252;2022-08-02T03:49:37;3.07;;;2.00;;
438;SDS011;206;48.782;9.252;2022-08-02T03:52:03;3.07;;;2.20;;
438;SDS011;206;48.782;9.252;2022-08-02T03:54:30;3.17;;;2.47;;
438;SDS011;206;48.782;9.252;2022-08-02T03:56:56;2.33;;;1.90;;
438;SDS011;206;48.782;9.252;2022-08-02T03:59:21;2.70;;;2.30;;
438;SDS011;206;48.782;9.252;2022-08-02T04:01:47;4.90;;;2.27;;
438;SDS011;206;48.782;9.252;2022-08-02T04:04:12;3.37;;;2.40;;
438;SDS011;206;48.782;9.252;2022-08-02T04:06:38;2.23;;;2.03;;
438;SDS011;206;48.782;9.252;2022-08-02T04:09:04;3.03;;;2.43;;
438;SDS011;206;48.782;9.252;2022-08-02T04:11:29;3.50;;;1.80;;
438;SDS011;206;48.782;9.252;2022-08-02T04:13:55;2.53;;;2.33;;
438;SDS011;206;48.782;9.252;2022-08-02T04:16:27;3.73;;;3.37;;
438;SDS011;206;48.782;9.252;2022-08-02T04:19:31;3.37;;;2.30;;
438;SDS011;206;48.782;9.252;2022-08-02T04:22:09;2.80;;;2.27;;
438;SDS011;206;48.782;9.252;2022-08-02T04:24:48;4.17;;;2.30;;
438;SDS011;206;48.782;9.252;2022-08-02T04:27:16;3.13;;;2.13;;
438;SDS011;206;48.782;9.252;2022-08-02T04:29:43;2.70;;;2.40;;
438;SDS011;206;48.782;9.252;2022-08-02T04:32:10;4.03;;;3.07;;
438;SDS011;206;48.782;9.252;2022-08-02T04:34:37;3.80;;;2.53;;
438;SDS011;206;48.782;9.252;2022-08-02T04:37:06;3.00;;;2.80;;
438;SDS011;206;48.782;9.252;2022-08-02T04:39:32;3.00;;;1.87;;
438;SDS011;206;48.782;9.252;2022-08-02T04:41:58;5.13;;;2.77;;
438;SDS011;206;48.782;9.252;2022-08-02T04:44:24;2.80;;;2.60;;
438;SDS011;206;48.782;9.252;2022-08-02T04:46:50;3.93;;;2.90;;
438;SDS011;206;48.782;9.252;2022-08-02T04:49:16;3.70;;;2.40;;
438;SDS011;206;48.782;9.252;2022-08-02T04:51:42;4.50;;;2.50;;
438;SDS011;206;48.782;9.252;2022-08-02T04:54:08;3.07;;;2.87;;
438;SDS011;206;48.782;9.252;2022-08-02T04:56:34;3.80;;;2.60;;
438;SDS011;206;48.782;9.252;2022-08-02T04:59:01;5.27;;;2.23;;
438;SDS011;206;48.782;9.252;2022-08-02T05:01:26;2.80;;;2.53;;
438;SDS011;206;48.782;9.252;2022-08-02T05:03:52;2.80;;;2.60;;
438;SDS011;206;48.782;9.252;2022-08-02T05:06:18;4.70;;;2.87;;
438;SDS011;206;48.782;9.252;2022-08-02T05:08:44;4.73;;;2.80;;
438;SDS011;206;48.782;9.252;2022-08-02T05:11:10;9.53;;;2.50;;
438;SDS011;206;48.782;9.252;2022-08-02T05:13:42;2.13;;;1.97;;
438;SDS011;206;48.782;9.252;2022-08-02T05:16:08;3.30;;;3.00;;
438;SDS011;206;48.782;9.252;2022-08-02T05:18:34;6.87;;;2.87;;
438;SDS011;206;48.782;9.252;2022-08-02T05:20:59;2.93;;;2.60;;
438;SDS011;206;48.782;9.252;2022-08-02T05:23:31;3.07;;;2.87;;
438;SDS011;206;48.782;9.252;2022-08-02T05:29:31;4.77;;;3.20;;
438;SDS011;206;48.782;9.252;2022-08-02T05:31:57;2.90;;;2.70;;
438;SDS011;206;48.782;9.252;2022-08-02T05:34:32;2.90;;;2.73;;
438;SDS011;206;48.782;9.252;2022-08-02T05:37:30;2.43;;;2.23;;
438;SDS011;206;48.782;9.252;2022-08-02T05:39:56;5.87;;;2.63;;
438;SDS011;206;48.782;9.252;2022-08-02T05:42:22;4.50;;;2.73;;
438;SDS011;206;48.782;9.252;2022-08-02T05:44:47;3.07;;;2.30;;
438;SDS011;206;48.782;9.252;2022-08-02T05:47:13;3.60;;;2.80;;
438;SDS011;206;48.782;9.252;2022-08-02T05:49:44;2.23;;;2.10;;
438;SDS011;206;48.782;9.252;2022-08-02T05:55:26;4.60;;;2.50;;
438;SDS011;206;48.782;9.252;2022-08-02T06:00:29;5.13;;;2.83;;
438;SDS011;206;48.782;9.252;2022-08-02T06:03:11;7.27;;;6.87;;
438;SDS011;206;48.782;9.252;2022-08-02T06:05:59;4.57;;;2.13;;
438;SDS011;206;48.782;9.252;2022-08-02T06:08:43;4.80;;;2.37;;
438;SDS011;206;48.782;9.252;2022-08-02T06:14:32;3.70;;;2.40;;
438;SDS011;206;48.782;9.252;2022-08-02T06:17:19;6.03;;;2.93;;
438;SDS011;206;48.782;9.252;2022-08-02T06:20:06;2.77;;;2.53;;
438;SDS011;206;48.782;9.252;2022-08-02T06:22:45;3.43;;;2.80;;
438;SDS011;206;48.782;9.252;2022-08-02T06:25:11;4.00;;;3.23;;
438;SDS011;206;48.782;9.252;2022-08-02T06:34:59;7.13;;;3.10;;
438;SDS011;206;48.782;9.252;2022-08-02T06:37:35;5.93;;;3.00;;
438;SDS011;206;48.782;9.252;2022-08-02T06:56:58;3.70;;;3.37;;
438;SDS011;206;48.782;9.252;2022-08-02T07:00:18;7.77;;;2.83;;
438;SDS011;206;48.782;9.252;2022-08-02T07:03:27;4.10;;;2.97;;
438;SDS011;206;48.782;9.252;2022-08-02T07:06:09;6.50;;;2.90;;
438;SDS011;206;48.782;9.252;2022-08-02T07:34:17;4.77;;;3.73;;
438;SDS011;206;48.782;9.252;2022-08-02T07:43:52;4.60;;;3.90;;
438;SDS011;206;48.782;9.252;2022-08-02T07:49:57;3.80;;;3.60;;
438;SDS011;206;48.782;9.252;2022-08-02T07:52:22;7.23;;;3.73;;
438;SDS011;206;48.782;9.252;2022-08-02T07:54:48;6.77;;;4.20;;
438;SDS011;206;48.782;9.252;2022-08-02T07:57:14;5.53;;;2.90;;
438;SDS011;206;48.782;9.252;2022-08-02T07:59:39;7.07;;;4.00;;
438;SDS011;206;48.782;9.252;2022-08-02T08:02:05;4.60;;;3.70;;
438;SDS011;206;48.782;9.252;2022-08-02T08:04:30;18.90;;;5.00;;
438;SDS011;206;48.782;9.252;2022-08-02T08:06:56;23.00;;;4.53;;
438;SDS011;206;48.782;9.252;2022-08-02T08:09:22;3.37;;;3.00;;
438;SDS011;206;48.782;9.252;2022-08-02T08:11:47;4.57;;;4.17;;
438;SDS011;206;48.782;9.252;2022-08-02T08:14:13;5.27;;;4.00;;
438;SDS011;206;48.782;9.252;2022-08-02T08:16:39;4.30;;;3.20;;
438;SDS011;206;48.782;9.252;2022-08-02T08:19:04;6.93;;;3.50;;
438;SDS011;206;48.782;9.252;2022-08-02T08:21:30;7.00;;;4.13;;
438;SDS011;206;48.782;9.252;2022-08-02T08:23:56;6.10;;;3.63;;
438;SDS011;206;48.782;9.252;2022-08-02T08:26:21;5.50;;;3.63;;
438;SDS011;206;48.782;9.252;2022-08-02T08:28:47;3.80;;;3.50;;
438;SDS011;206;48.782;9.252;2022-08-02T08:31:13;4.17;;;3.93;;
438;SDS011;206;48.782;9.252;2022-08-02T08:33:39;4.50;;;3.53;;
438;SDS011;206;48.782;9.252;2022-08-02T08:36:04;5.80;;;3.93;;
438;SDS011;206;48.782;9.252;2022-08-02T08:38:30;8.00;;;4.37;;
438;SDS011;206;48.782;9.252;2022-08-02T08:40:56;5.57;;;5.27;;
438;SDS011;206;48.782;9.252;2022-08-02T08:43:22;4.40;;;2.90;;
438;SDS011;206;48.782;9.252;2022-08-02T08:45:47;5.37;;;4.10;;
438;SDS011;206;48.782;9.252;2022-08-02T08:48:17;8.33;;;3.33;;
438;SDS011;206;48.782;9.252;2022-08-02T08:50:52;6.67;;;4.60;;
438;SDS011;206;48.782;9.252;2022-08-02T08:53:36;5.33;;;4.13;;
438;SDS011;206;48.782;9.252;2022-08-02T08:56:11;7.00;;;3.50;;
438;SDS011;206;48.782;9.252;2022-08-02T08:58:38;7.07;;;3.70;;
438;SDS011;206;48.782;9.252;2022-08-02T09:01:03;6.47;;;4.63;;
438;SDS011;206;48.782;9.252;2022-08-02T09:03:29;5.30;;;4.53;;
438;SDS011;206;48.782;9.252;2022-08-02T09:05:56;7.40;;;4.77;;
438;SDS011;206;48.782;9.252;2022-08-02T09:08:22;7.87;;;4.47;;
438;SDS011;206;48.782;9.252;2022-08-02T09:10:48;4.80;;;3.53;;
438;SDS011;206;48.782;9.252;2022-08-02T09:13:15;3.60;;;3.20;;
438;SDS011;206;48.782;9.252;2022-08-02T09:15:44;4.57;;;3.73;;
438;SDS011;206;48.782;9.252;2022-08-02T09:18:17;4.47;;;3.50;;
438;SDS011;206;48.782;9.252;2022-08-02T09:20:50;5.30;;;4.20;;
438;SDS011;206;48.782;9.252;2022-08-02T09:23:22;4.47;;;4.17;;
438;SDS011;206;48.782;9.252;2022-08-02T09:25:55;4.70;;;4.33;;
438;SDS011;206;48.782;9.252;2022-08-02T09:28:29;5.20;;;4.67;;
438;SDS011;206;48.782;9.252;2022-08-02T09:30:57;4.63;;;4.30;;
438;SDS011;206;48.782;9.252;2022-08-02T09:33:31;3.43;;;3.27;;
438;SDS011;206;48.782;9.252;2022-08-02T09:36:06;6.10;;;4.53;;
438;SDS011;206;48.782;9.252;2022-08-02T09:38:34;4.47;;;4.13;;
438;SDS011;206;48.782;9.252;2022-08-02T09:41:01;3.90;;;3.70;;
438;SDS011;206;48.782;9.252;2022-08-02T09:46:19;3.93;;;3.77;;
438;SDS011;206;48.782;9.252;2022-08-02T09:48:47;5.03;;;4.73;;
438;SDS011;206;48.782;9.252;2022-08-02T09:51:25;5.73;;;4.93;;
438;SDS011;206;48.782;9.252;2022-08-02T09:53:54;5.30;;;5.00;;
438;SDS011;206;48.782;9.252;2022-08-02T09:56:21;6.80;;;4.23;;
438;SDS011;206;48.782;9.252;2022-08-02T09:58:47;6.67;;;5.83;;
438;SDS011;206;48.782;9.252;2022-08-02T10:01:15;4.43;;;4.13;;
438;SDS011;206;48.782;9.252;2022-08-02T10:03:54;5.20;;;4.73;;
438;SDS011;206;48.782;9.252;2022-08-02T10:06:21;4.83;;;4.53;;
438;SDS011;206;48.782;9.252;2022-08-02T10:08:47;5.47;;;4.80;;
438;SDS011;206;48.782;9.252;2022-08-02T10:11:13;5.43;;;4.63;;
438;SDS011;206;48.782;9.252;2022-08-02T10:13:39;3.83;;;3.53;;
438;SDS011;206;48.782;9.252;2022-08-02T10:16:04;4.73;;;3.87;;
438;SDS011;206;48.782;9.252;2022-08-02T10:18:31;4.87;;;3.40;;
438;SDS011;206;48.782;9.252;2022-08-02T10:20:57;7.90;;;5.03;;
438;SDS011;206;48.782;9.252;2022-08-02T10:23:25;4.97;;;4.50;;
438;SDS011;206;48.782;9.252;2022-08-02T10:25:53;5.67;;;3.77;;
438;SDS011;206;48.782;9.252;2022-08-02T10:28:27;3.70;;;3.50;;
438;SDS011;206;48.782;9.252;2022-08-02T10:30:57;3.90;;;3.70;;
438;SDS011;206;48.782;9.252;2022-08-02T10:33:26;6.10;;;4.67;;
438;SDS011;206;48.782;9.252;2022-08-02T10:35:54;4.63;;;3.67;;
438;SDS011;206;48.782;9.252;2022-08-02T10:38:22;4.70;;;4.40;;
438;SDS011;206;48.782;9.252;2022-08-02T10:40:52;7.40;;;3.90;;
438;SDS011;206;48.782;9.252;2022-08-02T10:49:15;4.70;;;4.27;;
438;SDS011;206;48.782;9.252;2022-08-02T10:51:53;4.90;;;3.73;;
438;SDS011;206;48.782;9.252;2022-08-02T10:54:26;4.50;;;3.93;;
438;SDS011;206;48.782;9.252;2022-08-02T10:56:56;4.00;;;3.80;;
438;SDS011;206;48.782;9.252;2022-08-02T10:59:30;5.47;;;3.70;;
438;SDS011;206;48.782;9.252;2022-08-02T11:01:58;5.00;;;3.60;;
438;SDS011;206;48.782;9.252;2022-08-02T11:07:07;6.50;;;3.57;;
438;SDS011;206;48.782;9.252;2022-08-02T11:09:33;10.60;;;3.50;;
438;SDS011;206;48.782;9.252;2022-08-02T11:12:06;4.30;;;2.60;;
438;SDS011;206;48.782;9.252;2022-08-02T11:14:33;3.40;;;3.27;;
438;SDS011;206;48.782;9.252;2022-08-02T11:19:30;3.50;;;3.40;;
438;SDS011;206;48.782;9.252;2022-08-02T11:24:34;5.83;;;4.17;;
438;SDS011;206;48.782;9.252;2022-08-02T11:27:01;3.43;;;3.23;;
438;SDS011;206;48.782;9.252;2022-08-02T11:29:41;4.27;;;3.20;;
438;SDS011;206;48.782;9.252;2022-08-02T11:32:15;7.33;;;3.50;;
438;SDS011;206;48.782;9.252;2022-08-02T11:34:47;4.80;;;3.57;;
438;SDS011;206;48.782;9.252;2022-08-02T11:37:29;4.33;;;3.60;;
438;SDS011;206;48.782;9.252;2022-08-02T11:39:58;5.03;;;3.70;;
438;SDS011;206;48.782;9.252;2022-08-02T11:42:34;4.17;;;3.60;;
438;SDS011;206;48.782;9.252;2022-08-02T11:45:06;3.77;;;3.57;;
438;SDS011;206;48.782;9.252;2022-08-02T11:47:33;3.20;;;3.00;;
438;SDS011;206;48.782;9.252;2022-08-02T11:50:16;3.40;;;3.20;;
438;SDS011;206;48.782;9.252;2022-08-02T11:52:44;4.07;;;3.80;;
438;SDS011;206;48.782;9.252;2022-08-02T11:55:10;3.30;;;3.10;;
438;SDS011;206;48.782;9.252;2022-08-02T11:57:37;3.63;;;3.43;;
438;SDS011;206;48.782;9.252;2022-08-02T12:00:04;3.83;;;3.60;;
438;SDS011;206;48.782;9.252;2022-08-02T12:02:45;7.13;;;4.70;;
438;SDS011;206;48.782;9.252;2022-08-02T12:05:15;4.50;;;3.63;;
438;SDS011;206;48.782;9.252;2022-08-02T12:07:46;6.70;;;2.90;;
438;SDS011;206;48.782;9.252;2022-08-02T12:10:16;3.37;;;3.20;;
438;SDS011;206;48.782;9.252;2022-08-02T12:18:08;4.93;;;3.53;;
438;SDS011;206;48.782;9.252;2022-08-02T12:20:53;5.60;;;4.17;;
438;SDS011;206;48.782;9.252;2022-08-02T12:23:18;3.70;;;3.30;;
438;SDS011;206;48.782;9.252;2022-08-02T12:25:44;3.67;;;3.47;;
438;SDS011;206;48.782;9.252;2022-08-02T12:30:49;4.00;;;3.80;;
438;SDS011;206;48.782;9.252;2022-08-02T12:33:15;6.93;;;3.40;;
438;SDS011;206;48.782;9.252;2022-08-02T12:35:41;3.50;;;3.30;;
438;SDS011;206;48.782;9.252;2022-08-02T12:38:09;3.80;;;3.37;;
438;SDS011;206;48.782;9.252;2022-08-02T12:40:36;2.73;;;2.53;;
438;SDS011;206;48.782;9.252;2022-08-02T12:43:03;3.57;;;3.30;;
438;SDS011;206;48.782;9.252;2022-08-02T12:45:31;3.03;;;2.70;;
438;SDS011;206;48.782;9.252;2022-08-02T12:48:09;3.70;;;2.97;;
438;SDS011;206;48.782;9.252;2022-08-02T12:50:34;3.03;;;2.83;;
438;SDS011;206;48.782;9.252;2022-08-02T12:53:11;4.80;;;3.80;;
438;SDS011;206;48.782;9.252;2022-08-02T12:58:17;4.53;;;3.50;;
438;SDS011;206;48.782;9.252;2022-08-02T13:00:47;5.20;;;3.33;;
438;SDS011;206;48.782;9.252;2022-08-02T13:03:19;3.63;;;3.43;;
438;SDS011;206;48.782;9.252;2022-08-02T13:05:45;3.60;;;3.40;;
438;SDS011;206;48.782;9.252;2022-08-02T13:08:12;3.50;;;3.30;;
438;SDS011;206;48.782;9.252;2022-08-02T13:10:38;3.87;;;3.67;;
438;SDS011;206;48.782;9.252;2022-08-02T13:13:03;3.80;;;3.60;;
438;SDS011;206;48.782;9.252;2022-08-02T13:15:29;3.47;;;3.27;;
438;SDS011;206;48.782;9.252;2022-08-02T13:17:54;6.57;;;3.77;;
438;SDS011;206;48.782;9.252;2022-08-02T13:20:21;3.30;;;3.10;;
438;SDS011;206;48.782;9.252;2022-08-02T13:22:47;3.80;;;3.63;;
438;SDS011;206;48.782;9.252;2022-08-02T13:25:12;3.53;;;3.33;;
438;SDS011;206;48.782;9.252;2022-08-02T13:27:38;4.33;;;3.70;;
438;SDS011;206;48.782;9.252;2022-08-02T13:30:04;2.83;;;2.63;;
438;SDS011;206;48.782;9.252;2022-08-02T13:32:31;3.13;;;3.00;;
438;SDS011;206;48.782;9.252;2022-08-02T13:34:57;3.90;;;3.20;;
438;SDS011;206;48.782;9.252;2022-08-02T13:37:23;3.57;;;3.37;;
438;SDS011;206;48.782;9.252;2022-08-02T13:39:49;3.90;;;3.30;;
438;SDS011;206;48.782;9.252;2022-08-02T13:42:15;2.73;;;2.53;;
438;SDS011;206;48.782;9.252;2022-08-02T13:44:41;3.43;;;2.87;;
438;SDS011;206;48.782;9.252;2022-08-02T13:47:07;3.40;;;2.87;;
438;SDS011;206;48.782;9.252;2022-08-02T13:49:35;3.27;;;3.00;;
438;SDS011;206;48.782;9.252;2022-08-02T13:52:04;5.60;;;3.60;;
438;SDS011;206;48.782;9.252;2022-08-02T13:54:30;8.33;;;3.30;;
438;SDS011;206;48.782;9.252;2022-08-02T13:56:56;5.13;;;2.93;;
438;SDS011;206;48.782;9.252;2022-08-02T13:59:21;3.70;;;3.23;;
438;SDS011;206;48.782;9.252;2022-08-02T14:01:47;5.10;;;4.33;;
438;SDS011;206;48.782;9.252;2022-08-02T14:04:12;4.70;;;3.30;;
438;SDS011;206;48.782;9.252;2022-08-02T14:06:38;3.63;;;3.43;;
438;SDS011;206;48.782;9.252;2022-08-02T14:09:03;3.43;;;3.20;;
438;SDS011;206;48.782;9.252;2022-08-02T14:11:29;3.30;;;3.10;;
438;SDS011;206;48.782;9.252;2022-08-02T14:13:55;2.73;;;2.53;;
438;SDS011;206;48.782;9.252;2022-08-02T14:16:21;2.87;;;2.67;;
438;SDS011;206;48.782;9.252;2022-08-02T14:18:47;3.00;;;2.80;;
438;SDS011;206;48.782;9.252;2022-08-02T14:21:12;4.10;;;2.87;;
438;SDS011;206;48.782;9.252;2022-08-02T14:23:38;3.43;;;3.23;;
438;SDS011;206;48.782;9.252;2022-08-02T14:26:03;2.80;;;2.60;;
438;SDS011;206;48.782;9.252;2022-08-02T14:28:33;2.50;;;2.30;;
438;SDS011;206;48.782;9.252;2022-08-02T14:31:02;2.53;;;2.40;;
438;SDS011;206;48.782;9.252;2022-08-02T14:33:28;3.03;;;2.80;;
438;SDS011;206;48.782;9.252;2022-08-02T14:35:53;2.47;;;2.27;;
438;SDS011;206;48.782;9.252;2022-08-02T14:38:20;2.50;;;2.30;;
438;SDS011;206;48.782;9.252;2022-08-02T14:40:47;3.43;;;2.53;;
438;SDS011;206;48.782;9.252;2022-08-02T14:43:12;3.30;;;2.70;;
438;SDS011;206;48.782;9.252;2022-08-02T14:45:56;2.93;;;2.73;;
438;SDS011;206;48.782;9.252;2022-08-02T14:48:22;2.80;;;2.60;;
438;SDS011;206;48.782;9.252;2022-08-02T14:50:48;10.57;;;3.37;;
438;SDS011;206;48.782;9.252;2022-08-02T14:53:13;5.17;;;2.40;;
438;SDS011;206;48.782;9.252;2022-08-02T14:55:40;4.63;;;2.80;;
438;SDS011;206;48.782;9.252;2022-08-02T14:58:06;3.57;;;3.07;;
438;SDS011;206;48.782;9.252;2022-08-02T15:00:32;2.80;;;2.60;;
438;SDS011;206;48.782;9.252;2022-08-02T15:02:57;3.03;;;2.10;;
438;SDS011;206;48.782;9.252;2022-08-02T15:05:23;3.97;;;2.77;;
438;SDS011;206;48.782;9.252;2022-08-02T15:07:48;2.60;;;2.40;;
438;SDS011;206;48.782;9.252;2022-08-02T15:10:14;2.10;;;1.97;;
438;SDS011;206;48.782;9.252;2022-08-02T15:12:39;2.60;;;2.40;;
438;SDS011;206;48.782;9.252;2022-08-02T15:15:05;2.50;;;2.03;;
438;SDS011;206;48.782;9.252;2022-08-02T15:17:31;2.50;;;2.33;;
438;SDS011;206;48.782;9.252;2022-08-02T15:19:57;2.77;;;2.57;;
438;SDS011;206;48.782;9.252;2022-08-02T15:22:22;4.40;;;2.47;;
438;SDS011;206;48.782;9.252;2022-08-02T15:24:48;2.60;;;2.33;;
438;SDS011;206;48.782;9.252;2022-08-02T15:27:14;4.33;;;2.80;;
438;SDS011;206;48.782;9.252;2022-08-02T15:29:43;2.40;;;1.80;;
438;SDS011;206;48.782;9.252;2022-08-02T15:32:10;3.90;;;2.40;;
438;SDS011;206;48.782;9.252;2022-08-02T15:34:37;2.67;;;2.33;;
438;SDS011;206;48.782;9.252;2022-08-02T15:37:03;2.97;;;2.23;;
438;SDS011;206;48.782;9.252;2022-08-02T15:39:29;2.73;;;2.53;;
438;SDS011;206;48.782;9.252;2022-08-02T15:41:55;2.30;;;2.10;;
438;SDS011;206;48.782;9.252;2022-08-02T15:44:21;2.40;;;2.20;;
438;SDS011;206;48.782;9.252;2022-08-02T15:46:46;2.93;;;2.73;;
438;SDS011;206;48.782;9.252;2022-08-02T15:49:12;3.07;;;2.30;;
438;SDS011;206;48.782;9.252;2022-08-02T15:51:38;2.23;;;2.07;;
438;SDS011;206;48.782;9.252;2022-08-02T15:54:03;2.70;;;2.50;;
438;SDS011;206;48.782;9.252;2022-08-02T15:56:29;3.90;;;2.03;;
438;SDS011;206;48.782;9.252;2022-08-02T15:58:55;3.40;;;2.27;;
438;SDS011;206;48.782;9.252;2022-08-02T16:01:20;2.27;;;1.97;;
438;SDS011;206;48.782;9.252;2022-08-02T16:03:46;5.57;;;2.43;;
438;SDS011;206;48.782;9.252;2022-08-02T16:06:12;3.50;;;2.33;;
438;SDS011;206;48.782;9.252;2022-08-02T16:08:39;3.10;;;2.47;;
438;SDS011;206;48.782;9.252;2022-08-02T16:11:05;2.07;;;1.93;;
438;SDS011;206;48.782;9.252;2022-08-02T16:13:30;2.67;;;2.40;;
438;SDS011;206;48.782;9.252;2022-08-02T16:16:14;2.80;;;2.23;;
438;SDS011;206;48.782;9.252;2022-08-02T16:18:40;2.70;;;2.50;;
438;SDS011;206;48.782;9.252;2022-08-02T16:21:06;1.90;;;1.83;;
438;SDS011;206;48.782;9.252;2022-08-02T16:23:32;2.73;;;2.50;;
438;SDS011;206;48.782;9.252;2022-08-02T16:25:57;2.27;;;2.07;;
438;SDS011;206;48.782;9.252;2022-08-02T16:28:23;3.90;;;2.07;;
438;SDS011;206;48.782;9.252;2022-08-02T16:30:49;2.10;;;2.00;;
438;SDS011;206;48.782;9.252;2022-08-02T16:33:14;7.33;;;2.53;;
438;SDS011;206;48.782;9.252;2022-08-02T16:35:40;2.77;;;2.50;;
438;SDS011;206;48.782;9.252;2022-08-02T16:38:06;3.73;;;2.50;;
438;SDS011;206;48.782;9.252;2022-08-02T16:40:31;3.20;;;2.87;;
438;SDS011;206;48.782;9.252;2022-08-02T16:42:58;2.70;;;2.50;;
438;SDS011;206;48.782;9.252;2022-08-02T16:45:25;2.60;;;2.40;;
438;SDS011;206;48.782;9.252;2022-08-02T16:47:51;2.57;;;2.00;;
438;SDS011;206;48.782;9.252;2022-08-02T16:50:17;2.77;;;2.57;;
438;SDS011;206;48.782;9.252;2022-08-02T16:52:42;3.90;;;2.40;;
438;SDS011;206;48.782;9.252;2022-08-02T16:55:08;3.23;;;2.40;;
438;SDS011;206;48.782;9.252;2022-08-02T16:57:34;2.20;;;2.00;;
438;SDS011;206;48.782;9.252;2022-08-02T17:00:08;2.40;;;2.20;;
438;SDS011;206;48.782;9.252;2022-08-02T17:02:35;2.83;;;2.47;;
438;SDS011;206;48.782;9.252;2022-08-02T17:05:07;2.60;;;2.33;;
438;SDS011;206;48.782;9.252;2022-08-02T17:07:33;2.33;;;2.13;;
438;SDS011;206;48.782;9.252;2022-08-02T17:09:58;3.00;;;2.63;;
438;SDS011;206;48.782;9.252;2022-08-02T17:12:24;1.70;;;1.70;;
438;SDS011;206;48.782;9.252;2022-08-02T17:14:50;3.03;;;2.60;;
438;SDS011;206;48.782;9.252;2022-08-02T17:17:16;2.63;;;2.20;;
438;SDS011;206;48.782;9.252;2022-08-02T17:19:42;3.10;;;2.07;;
438;SDS011;206;48.782;9.252;2022-08-02T17:22:07;2.50;;;2.17;;
438;SDS011;206;48.782;9.252;2022-08-02T17:24:33;2.50;;;2.33;;
438;SDS011;206;48.782;9.252;2022-08-02T17:26:59;2.30;;;2.10;;
438;SDS011;206;48.782;9.252;2022-08-02T17:29:24;2.40;;;2.20;;
438;SDS011;206;48.782;9.252;2022-08-02T17:31:50;2.57;;;2.37;;
438;SDS011;206;48.782;9.252;2022-08-02T17:34:16;2.27;;;2.07;;
438;SDS011;206;48.782;9.252;2022-08-02T17:36:42;2.37;;;2.17;;
438;SDS011;206;48.782;9.252;2022-08-02T17:39:08;4.33;;;2.10;;
438;SDS011;206;48.782;9.252;2022-08-02T17:41:33;2.70;;;1.90;;
438;SDS011;206;48.782;9.252;2022-08-02T17:44:00;2.43;;;2.23;;
438;SDS011;206;48.782;9.252;2022-08-02T17:46:26;3.17;;;2.97;;